Maran Canopus — SXUQ — position and weather

sailwx.info

Track history (hours):
 
Tides and Currents Weather Stations Pressure Air Temp Water Temp Dewpoint Dewpoint Depression Visibility Wind Speed Wind Dir Waves Ship Positions

Maran Canopus

Last reported at 2017-Oct-21 07:50 UTC. Time now 2017-Nov-23 09:36 UTC.
Position N 01°15' E 104°06'.
Warning: this ship's position is 33 days out of date.

Length 333 m; draft 21 m.

Type: Ship (hazmat cat A). MMSI: 240677000.

Date/timePositionNaut miles runAvg speedWind from/ knotsBaromVisibWave heightAir tempDewpointWater temp
2017-Oct-21 07:50N 01°15' E 104°06'4 6.8
2017-Oct-21 07:18N 01°15' E 104°03'2 6.7
2017-Oct-21 06:59N 01°14' E 104°01'3 6.2
2017-Oct-21 06:30N 01°14' E 103°58'3 6.3
2017-Oct-21 06:01N 01°13' E 103°55'3 6.8
2017-Oct-21 05:30N 01°12' E 103°52'4 8.0
2017-Oct-21 04:59N 01°10' E 103°48'3 7.3
2017-Oct-21 04:30N 01°08' E 103°45'4 7.4
2017-Oct-21 03:59N 01°05' E 103°42'3 6.7
2017-Oct-21 03:30N 01°03' E 103°40'510.4
2017-Oct-21 03:01N 01°05' E 103°35'611.8
2017-Oct-21 02:30N 01°09' E 103°30'612.4
2017-Oct-21 01:59N 01°12' E 103°24'612.4
2017-Oct-21 01:30N 01°15' E 103°20'  
Track history (hours):
 
Tides and Currents Weather Stations Pressure Air Temp Water Temp Dewpoint Dewpoint Depression Visibility Wind Speed Wind Dir Waves Ship Positions

Maran Canopus

Last reported at 2017-Oct-21 07:50 UTC. Time now 2017-Nov-23 09:36 UTC.
Position N 01°15' E 104°06'.
Warning: this ship's position is 33 days out of date.

Length 333 m; draft 21 m.

Type: Ship (hazmat cat A). MMSI: 240677000.

Date/timePositionNaut miles runAvg speedWind from/ knotsBaromVisibWave heightAir tempDewpointWater temp
2017-Oct-21 07:50N 01°15' E 104°06'4 6.8
2017-Oct-21 07:18N 01°15' E 104°03'2 6.7
2017-Oct-21 06:59N 01°14' E 104°01'3 6.2
2017-Oct-21 06:30N 01°14' E 103°58'3 6.3
2017-Oct-21 06:01N 01°13' E 103°55'3 6.8
2017-Oct-21 05:30N 01°12' E 103°52'4 8.0
2017-Oct-21 04:59N 01°10' E 103°48'3 7.3
2017-Oct-21 04:30N 01°08' E 103°45'4 7.4
2017-Oct-21 03:59N 01°05' E 103°42'3 6.7
2017-Oct-21 03:30N 01°03' E 103°40'510.4
2017-Oct-21 03:01N 01°05' E 103°35'611.8
2017-Oct-21 02:30N 01°09' E 103°30'612.4
2017-Oct-21 01:59N 01°12' E 103°24'612.4
2017-Oct-21 01:30N 01°15' E 103°20'  

Dump ship's entire track history